Umatilla, FL

3:55 PM EST on March 05, 2015 (GMT -0500)
Orlando Sanford | Change Station
CLOSE
Current Station
Airport
Location: Sanford,
Elevation: 56 ft
Nearby Weather Stations

Elev 56 ft 28.78 °N, 81.24 °W | Updated 1 hour ago

Partly Cloudy
Partly Cloudy
86 °F
Feels Like 87 °F
N
14
Wind Variable Wind from WSW
Gusts 25 mph

Today
High -- | Low -- °F
--% Chance of Precip.
Yesterday
High -- | Low -- °F
Precip. -- in
6:47 AM 6:28 PM
Full, 100% visible
Pressure 30.04 in
Visibility 10.0 miles
Clouds Scattered Clouds 6500 ft
Heat Index 87 °F
Dew Point 63 °F
Humidity 46%
Rainfall 0.00 in
Snow Depth Not available.
UV 6 out of 12
Pollen 11.00 out of 12
Air Quality Not available.
Flu Activity Not available.
METAR KSFB 051953Z 25012G22KT 10SM SCT065 30/17 A3005 RMK AO2 WSHFT 1915 SLP173 T03000172

More Conditions Fewer Conditions

Pressure 30.04 in
Visibility 10.0 miles
Clouds Scattered Clouds 6500 ft
Heat Index 87 °F
Dew Point 63 °F
Humidity 46%
Rainfall 0.00 in
Snow Depth Not available.
UV 6 out of 12
Pollen 11.00 out of 12
Air Quality Not available.
Flu Activity Not available.
METAR KSFB 051953Z 25012G22KT 10SM SCT065 30/17 A3005 RMK AO2 WSHFT 1915 SLP173 T03000172

More Conditions Fewer Conditions

10-Day Weather Forecast

Almanac

Astronomy

Mar. 05, 2015 Rise Set
Actual Time
Civil Twilight
Nautical Twilight
Astronomical Twilight
Moon
Length of Visible Light
Length of Day
Tomorrow will be .
, % of the Moon is Illuminated

Today's Extremes

State Highs State Lows

Community

WunderPhotos

Upload Photos

1,802,964 photos uploaded!

WunderBlogs® & News

Nearby

Air Quality

  Air Quality AQ Index Pollutant
Not available.

Snow Depth

Station Depth Elevation

Earthquake Activity

City Distance Mag. Time & Date
Minimum magnitude displayed is 2.5.

Coastal Water Temperatures

Place Temperature

Nearby Weather Stations